sensor_id;sensor_type;location;lat;lon;timestamp;P1;durP1;ratioP1;P2;durP2;ratioP2
55655;SDS011;41530;52.382;5.270;2023-07-02T00:00:54;11.15;;;4.07;;
55655;SDS011;41530;52.382;5.270;2023-07-02T00:03:59;13.38;;;4.65;;
55655;SDS011;41530;52.382;5.270;2023-07-02T00:06:35;10.52;;;5.00;;
55655;SDS011;41530;52.382;5.270;2023-07-02T00:09:28;14.05;;;5.28;;
55655;SDS011;41530;52.382;5.270;2023-07-02T00:12:25;12.35;;;5.10;;
55655;SDS011;41530;52.382;5.270;2023-07-02T00:18:36;15.98;;;5.70;;
55655;SDS011;41530;52.382;5.270;2023-07-02T00:21:30;13.88;;;5.40;;
55655;SDS011;41530;52.382;5.270;2023-07-02T00:24:23;16.90;;;5.80;;
55655;SDS011;41530;52.382;5.270;2023-07-02T00:27:16;15.52;;;5.70;;
55655;SDS011;41530;52.382;5.270;2023-07-02T00:30:02;16.65;;;5.50;;
55655;SDS011;41530;52.382;5.270;2023-07-02T00:33:04;18.40;;;6.15;;
55655;SDS011;41530;52.382;5.270;2023-07-02T00:35:59;14.05;;;6.25;;
55655;SDS011;41530;52.382;5.270;2023-07-02T00:39:04;17.08;;;6.30;;
55655;SDS011;41530;52.382;5.270;2023-07-02T00:41:43;18.58;;;5.22;;
55655;SDS011;41530;52.382;5.270;2023-07-02T00:44:19;14.98;;;6.35;;
55655;SDS011;41530;52.382;5.270;2023-07-02T00:46:53;14.32;;;5.57;;
55655;SDS011;41530;52.382;5.270;2023-07-02T00:49:22;13.73;;;6.35;;
55655;SDS011;41530;52.382;5.270;2023-07-02T00:51:58;16.33;;;6.65;;
55655;SDS011;41530;52.382;5.270;2023-07-02T00:54:31;19.23;;;5.95;;
55655;SDS011;41530;52.382;5.270;2023-07-02T00:57:03;15.30;;;5.25;;
55655;SDS011;41530;52.382;5.270;2023-07-02T00:59:43;15.77;;;6.55;;
55655;SDS011;41530;52.382;5.270;2023-07-02T01:02:30;15.90;;;6.25;;
55655;SDS011;41530;52.382;5.270;2023-07-02T01:05:21;19.08;;;6.20;;
55655;SDS011;41530;52.382;5.270;2023-07-02T01:08:38;20.25;;;7.03;;
55655;SDS011;41530;52.382;5.270;2023-07-02T01:11:10;19.25;;;6.28;;
55655;SDS011;41530;52.382;5.270;2023-07-02T01:17:14;25.10;;;6.65;;
55655;SDS011;41530;52.382;5.270;2023-07-02T01:20:13;17.02;;;6.30;;
55655;SDS011;41530;52.382;5.270;2023-07-02T01:23:00;16.13;;;6.38;;
55655;SDS011;41530;52.382;5.270;2023-07-02T01:25:34;18.08;;;6.35;;
55655;SDS011;41530;52.382;5.270;2023-07-02T01:28:24;15.75;;;5.80;;
55655;SDS011;41530;52.382;5.270;2023-07-02T01:31:00;18.52;;;6.82;;
55655;SDS011;41530;52.382;5.270;2023-07-02T01:33:26;20.30;;;7.10;;
55655;SDS011;41530;52.382;5.270;2023-07-02T01:35:53;18.90;;;6.55;;
55655;SDS011;41530;52.382;5.270;2023-07-02T01:38:19;16.63;;;6.50;;
55655;SDS011;41530;52.382;5.270;2023-07-02T01:40:47;16.45;;;6.18;;
55655;SDS011;41530;52.382;5.270;2023-07-02T01:43:15;17.25;;;6.93;;
55655;SDS011;41530;52.382;5.270;2023-07-02T01:45:41;18.30;;;6.25;;
55655;SDS011;41530;52.382;5.270;2023-07-02T01:48:08;19.02;;;6.97;;
55655;SDS011;41530;52.382;5.270;2023-07-02T01:50:35;20.48;;;6.75;;
55655;SDS011;41530;52.382;5.270;2023-07-02T01:53:02;16.85;;;7.53;;
55655;SDS011;41530;52.382;5.270;2023-07-02T01:55:29;17.42;;;6.80;;
55655;SDS011;41530;52.382;5.270;2023-07-02T01:57:55;17.73;;;6.55;;
55655;SDS011;41530;52.382;5.270;2023-07-02T02:00:22;17.52;;;6.88;;
55655;SDS011;41530;52.382;5.270;2023-07-02T02:02:50;16.95;;;6.78;;
55655;SDS011;41530;52.382;5.270;2023-07-02T02:05:17;20.33;;;6.97;;
55655;SDS011;41530;52.382;5.270;2023-07-02T02:07:44;18.10;;;6.53;;
55655;SDS011;41530;52.382;5.270;2023-07-02T02:10:10;16.67;;;6.90;;
55655;SDS011;41530;52.382;5.270;2023-07-02T02:12:37;14.43;;;6.05;;
55655;SDS011;41530;52.382;5.270;2023-07-02T02:15:03;23.27;;;7.10;;
55655;SDS011;41530;52.382;5.270;2023-07-02T02:17:31;18.17;;;6.88;;
55655;SDS011;41530;52.382;5.270;2023-07-02T02:19:58;22.48;;;6.30;;
55655;SDS011;41530;52.382;5.270;2023-07-02T02:22:25;20.75;;;6.80;;
55655;SDS011;41530;52.382;5.270;2023-07-02T02:24:51;16.95;;;6.72;;
55655;SDS011;41530;52.382;5.270;2023-07-02T02:27:18;16.80;;;6.63;;
55655;SDS011;41530;52.382;5.270;2023-07-02T02:29:45;19.85;;;6.72;;
55655;SDS011;41530;52.382;5.270;2023-07-02T02:32:11;15.90;;;6.55;;
55655;SDS011;41530;52.382;5.270;2023-07-02T02:34:38;17.08;;;6.55;;
55655;SDS011;41530;52.382;5.270;2023-07-02T02:37:05;15.45;;;6.10;;
55655;SDS011;41530;52.382;5.270;2023-07-02T02:39:32;19.60;;;6.95;;
55655;SDS011;41530;52.382;5.270;2023-07-02T02:41:58;18.08;;;6.28;;
55655;SDS011;41530;52.382;5.270;2023-07-02T02:44:25;18.08;;;7.22;;
55655;SDS011;41530;52.382;5.270;2023-07-02T02:46:52;18.27;;;6.75;;
55655;SDS011;41530;52.382;5.270;2023-07-02T02:49:18;19.52;;;6.60;;
55655;SDS011;41530;52.382;5.270;2023-07-02T02:51:45;16.55;;;6.57;;
55655;SDS011;41530;52.382;5.270;2023-07-02T02:54:12;18.52;;;6.15;;
55655;SDS011;41530;52.382;5.270;2023-07-02T02:56:38;17.13;;;6.78;;
55655;SDS011;41530;52.382;5.270;2023-07-02T02:59:05;15.10;;;6.13;;
55655;SDS011;41530;52.382;5.270;2023-07-02T03:01:32;17.58;;;6.78;;
55655;SDS011;41530;52.382;5.270;2023-07-02T03:03:59;18.20;;;6.43;;
55655;SDS011;41530;52.382;5.270;2023-07-02T03:06:26;15.25;;;6.68;;
55655;SDS011;41530;52.382;5.270;2023-07-02T03:08:53;20.67;;;7.05;;
55655;SDS011;41530;52.382;5.270;2023-07-02T03:11:19;18.48;;;7.65;;
55655;SDS011;41530;52.382;5.270;2023-07-02T03:13:46;13.98;;;6.18;;
55655;SDS011;41530;52.382;5.270;2023-07-02T03:16:13;16.77;;;6.60;;
55655;SDS011;41530;52.382;5.270;2023-07-02T03:18:40;20.65;;;6.53;;
55655;SDS011;41530;52.382;5.270;2023-07-02T03:21:07;21.73;;;7.28;;
55655;SDS011;41530;52.382;5.270;2023-07-02T03:23:34;17.35;;;6.85;;
55655;SDS011;41530;52.382;5.270;2023-07-02T03:26:01;19.63;;;7.15;;
55655;SDS011;41530;52.382;5.270;2023-07-02T03:28:28;18.23;;;7.28;;
55655;SDS011;41530;52.382;5.270;2023-07-02T03:30:54;19.92;;;6.82;;
55655;SDS011;41530;52.382;5.270;2023-07-02T03:33:21;21.65;;;7.18;;
55655;SDS011;41530;52.382;5.270;2023-07-02T03:35:47;22.02;;;7.53;;
55655;SDS011;41530;52.382;5.270;2023-07-02T03:38:14;20.83;;;7.28;;
55655;SDS011;41530;52.382;5.270;2023-07-02T03:40:41;16.00;;;6.55;;
55655;SDS011;41530;52.382;5.270;2023-07-02T03:43:08;16.65;;;6.85;;
55655;SDS011;41530;52.382;5.270;2023-07-02T03:45:35;18.40;;;7.00;;
55655;SDS011;41530;52.382;5.270;2023-07-02T03:48:01;22.20;;;6.85;;
55655;SDS011;41530;52.382;5.270;2023-07-02T03:50:28;16.58;;;7.22;;
55655;SDS011;41530;52.382;5.270;2023-07-02T03:52:55;23.60;;;6.63;;
55655;SDS011;41530;52.382;5.270;2023-07-02T03:55:22;20.00;;;6.82;;
55655;SDS011;41530;52.382;5.270;2023-07-02T03:57:48;18.90;;;7.13;;
55655;SDS011;41530;52.382;5.270;2023-07-02T04:00:15;18.67;;;6.93;;
55655;SDS011;41530;52.382;5.270;2023-07-02T04:02:42;20.23;;;7.55;;
55655;SDS011;41530;52.382;5.270;2023-07-02T04:05:09;17.77;;;7.13;;
55655;SDS011;41530;52.382;5.270;2023-07-02T04:07:36;19.60;;;6.25;;
55655;SDS011;41530;52.382;5.270;2023-07-02T04:10:02;18.83;;;6.80;;
55655;SDS011;41530;52.382;5.270;2023-07-02T04:12:31;16.75;;;6.72;;
55655;SDS011;41530;52.382;5.270;2023-07-02T04:14:57;16.42;;;6.50;;
55655;SDS011;41530;52.382;5.270;2023-07-02T04:17:24;21.17;;;6.80;;
55655;SDS011;41530;52.382;5.270;2023-07-02T04:19:53;20.33;;;6.70;;
55655;SDS011;41530;52.382;5.270;2023-07-02T04:22:21;16.58;;;6.93;;
55655;SDS011;41530;52.382;5.270;2023-07-02T04:24:48;23.08;;;7.32;;
55655;SDS011;41530;52.382;5.270;2023-07-02T04:27:16;19.52;;;7.18;;
55655;SDS011;41530;52.382;5.270;2023-07-02T04:30:06;16.95;;;6.15;;
55655;SDS011;41530;52.382;5.270;2023-07-02T04:32:34;15.65;;;6.63;;
55655;SDS011;41530;52.382;5.270;2023-07-02T04:35:01;21.70;;;6.65;;
55655;SDS011;41530;52.382;5.270;2023-07-02T04:37:28;16.52;;;6.47;;
55655;SDS011;41530;52.382;5.270;2023-07-02T04:39:55;21.05;;;6.38;;
55655;SDS011;41530;52.382;5.270;2023-07-02T04:42:22;18.10;;;6.63;;
55655;SDS011;41530;52.382;5.270;2023-07-02T04:44:54;21.27;;;6.72;;
55655;SDS011;41530;52.382;5.270;2023-07-02T04:47:21;25.50;;;6.95;;
55655;SDS011;41530;52.382;5.270;2023-07-02T04:49:48;17.23;;;6.45;;
55655;SDS011;41530;52.382;5.270;2023-07-02T04:52:15;23.70;;;6.78;;
55655;SDS011;41530;52.382;5.270;2023-07-02T04:54:41;22.58;;;7.22;;
55655;SDS011;41530;52.382;5.270;2023-07-02T04:57:08;17.77;;;6.57;;
55655;SDS011;41530;52.382;5.270;2023-07-02T04:59:34;25.77;;;7.03;;
55655;SDS011;41530;52.382;5.270;2023-07-02T05:02:01;17.55;;;6.03;;
55655;SDS011;41530;52.382;5.270;2023-07-02T05:04:28;19.45;;;6.55;;
55655;SDS011;41530;52.382;5.270;2023-07-02T05:06:55;17.15;;;6.85;;
55655;SDS011;41530;52.382;5.270;2023-07-02T05:09:21;17.35;;;6.30;;
55655;SDS011;41530;52.382;5.270;2023-07-02T05:11:48;20.35;;;6.60;;
55655;SDS011;41530;52.382;5.270;2023-07-02T05:14:14;22.05;;;6.72;;
55655;SDS011;41530;52.382;5.270;2023-07-02T05:16:41;18.42;;;6.40;;
55655;SDS011;41530;52.382;5.270;2023-07-02T05:19:08;21.13;;;6.50;;
55655;SDS011;41530;52.382;5.270;2023-07-02T05:21:36;24.83;;;6.63;;
55655;SDS011;41530;52.382;5.270;2023-07-02T05:24:02;20.17;;;5.82;;
55655;SDS011;41530;52.382;5.270;2023-07-02T05:26:30;20.70;;;6.43;;
55655;SDS011;41530;52.382;5.270;2023-07-02T05:28:56;16.20;;;5.80;;
55655;SDS011;41530;52.382;5.270;2023-07-02T05:31:23;18.33;;;6.07;;
55655;SDS011;41530;52.382;5.270;2023-07-02T05:33:50;16.70;;;5.70;;
55655;SDS011;41530;52.382;5.270;2023-07-02T05:36:16;17.83;;;6.63;;
55655;SDS011;41530;52.382;5.270;2023-07-02T05:38:43;20.25;;;6.28;;
55655;SDS011;41530;52.382;5.270;2023-07-02T05:41:10;17.10;;;6.20;;
55655;SDS011;41530;52.382;5.270;2023-07-02T05:43:36;15.63;;;5.97;;
55655;SDS011;41530;52.382;5.270;2023-07-02T05:46:03;23.10;;;5.85;;
55655;SDS011;41530;52.382;5.270;2023-07-02T05:48:30;19.80;;;6.45;;
55655;SDS011;41530;52.382;5.270;2023-07-02T05:50:56;20.35;;;5.95;;
55655;SDS011;41530;52.382;5.270;2023-07-02T05:53:23;14.70;;;5.32;;
55655;SDS011;41530;52.382;5.270;2023-07-02T05:55:50;19.75;;;5.90;;
55655;SDS011;41530;52.382;5.270;2023-07-02T05:58:16;17.17;;;5.32;;
55655;SDS011;41530;52.382;5.270;2023-07-02T06:00:43;17.52;;;5.93;;
55655;SDS011;41530;52.382;5.270;2023-07-02T06:03:16;16.20;;;5.50;;
55655;SDS011;41530;52.382;5.270;2023-07-02T06:05:49;14.15;;;5.03;;
55655;SDS011;41530;52.382;5.270;2023-07-02T06:08:17;18.85;;;5.75;;
55655;SDS011;41530;52.382;5.270;2023-07-02T06:10:46;18.48;;;5.93;;
55655;SDS011;41530;52.382;5.270;2023-07-02T06:13:14;18.63;;;5.75;;
55655;SDS011;41530;52.382;5.270;2023-07-02T06:15:41;15.10;;;5.30;;
55655;SDS011;41530;52.382;5.270;2023-07-02T06:18:07;24.13;;;5.43;;
55655;SDS011;41530;52.382;5.270;2023-07-02T06:20:34;15.93;;;5.55;;
55655;SDS011;41530;52.382;5.270;2023-07-02T06:23:01;17.85;;;5.60;;
55655;SDS011;41530;52.382;5.270;2023-07-02T06:25:28;14.70;;;5.00;;
55655;SDS011;41530;52.382;5.270;2023-07-02T06:27:54;15.30;;;5.43;;
55655;SDS011;41530;52.382;5.270;2023-07-02T06:30:24;12.77;;;5.13;;
55655;SDS011;41530;52.382;5.270;2023-07-02T06:32:51;13.52;;;5.25;;
55655;SDS011;41530;52.382;5.270;2023-07-02T06:35:19;16.52;;;5.50;;
55655;SDS011;41530;52.382;5.270;2023-07-02T06:37:46;11.52;;;5.07;;
55655;SDS011;41530;52.382;5.270;2023-07-02T06:40:13;12.77;;;5.10;;
55655;SDS011;41530;52.382;5.270;2023-07-02T06:42:40;38.13;;;4.75;;
55655;SDS011;41530;52.382;5.270;2023-07-02T06:45:07;15.75;;;4.60;;
55655;SDS011;41530;52.382;5.270;2023-07-02T06:47:34;14.30;;;5.18;;
55655;SDS011;41530;52.382;5.270;2023-07-02T06:50:01;15.68;;;5.00;;
55655;SDS011;41530;52.382;5.270;2023-07-02T06:52:28;13.88;;;5.00;;
55655;SDS011;41530;52.382;5.270;2023-07-02T06:54:54;19.90;;;5.18;;
55655;SDS011;41530;52.382;5.270;2023-07-02T06:57:21;12.43;;;4.22;;
55655;SDS011;41530;52.382;5.270;2023-07-02T06:59:50;14.00;;;5.13;;
55655;SDS011;41530;52.382;5.270;2023-07-02T07:02:16;12.02;;;4.68;;
55655;SDS011;41530;52.382;5.270;2023-07-02T07:04:43;16.95;;;4.70;;
55655;SDS011;41530;52.382;5.270;2023-07-02T07:07:10;11.90;;;4.82;;
55655;SDS011;41530;52.382;5.270;2023-07-02T07:09:37;14.05;;;4.95;;
55655;SDS011;41530;52.382;5.270;2023-07-02T07:12:03;14.73;;;4.80;;
55655;SDS011;41530;52.382;5.270;2023-07-02T07:14:30;13.32;;;5.05;;
55655;SDS011;41530;52.382;5.270;2023-07-02T07:16:57;15.02;;;5.60;;
55655;SDS011;41530;52.382;5.270;2023-07-02T07:19:24;13.38;;;5.40;;
55655;SDS011;41530;52.382;5.270;2023-07-02T07:21:50;17.17;;;5.07;;
55655;SDS011;41530;52.382;5.270;2023-07-02T07:24:17;11.77;;;4.70;;
55655;SDS011;41530;52.382;5.270;2023-07-02T07:26:44;14.85;;;5.00;;
55655;SDS011;41530;52.382;5.270;2023-07-02T07:29:11;13.55;;;4.50;;
55655;SDS011;41530;52.382;5.270;2023-07-02T07:31:38;12.02;;;4.60;;
55655;SDS011;41530;52.382;5.270;2023-07-02T07:34:07;16.42;;;4.40;;
55655;SDS011;41530;52.382;5.270;2023-07-02T07:36:34;13.98;;;4.82;;
55655;SDS011;41530;52.382;5.270;2023-07-02T07:39:03;11.43;;;4.40;;
55655;SDS011;41530;52.382;5.270;2023-07-02T07:41:30;10.40;;;4.35;;
55655;SDS011;41530;52.382;5.270;2023-07-02T07:43:59;11.07;;;4.75;;
55655;SDS011;41530;52.382;5.270;2023-07-02T07:46:27;12.68;;;4.22;;
55655;SDS011;41530;52.382;5.270;2023-07-02T07:48:57;13.52;;;4.15;;
55655;SDS011;41530;52.382;5.270;2023-07-02T07:51:23;10.70;;;4.03;;
55655;SDS011;41530;52.382;5.270;2023-07-02T07:53:56;14.93;;;4.13;;
55655;SDS011;41530;52.382;5.270;2023-07-02T07:56:25;11.70;;;4.68;;
55655;SDS011;41530;52.382;5.270;2023-07-02T07:58:52;13.45;;;4.82;;
55655;SDS011;41530;52.382;5.270;2023-07-02T08:01:18;13.75;;;4.72;;
55655;SDS011;41530;52.382;5.270;2023-07-02T08:03:46;15.82;;;4.68;;
55655;SDS011;41530;52.382;5.270;2023-07-02T08:06:16;12.13;;;5.00;;
55655;SDS011;41530;52.382;5.270;2023-07-02T08:08:42;10.35;;;4.40;;
55655;SDS011;41530;52.382;5.270;2023-07-02T08:11:09;13.25;;;5.30;;
55655;SDS011;41530;52.382;5.270;2023-07-02T08:13:36;16.38;;;4.93;;
55655;SDS011;41530;52.382;5.270;2023-07-02T08:16:03;12.45;;;4.60;;
55655;SDS011;41530;52.382;5.270;2023-07-02T08:18:30;20.63;;;5.57;;
55655;SDS011;41530;52.382;5.270;2023-07-02T08:20:56;13.10;;;4.97;;
55655;SDS011;41530;52.382;5.270;2023-07-02T08:23:23;11.18;;;4.70;;
55655;SDS011;41530;52.382;5.270;2023-07-02T08:25:50;15.48;;;4.90;;
55655;SDS011;41530;52.382;5.270;2023-07-02T08:28:16;12.07;;;4.95;;
55655;SDS011;41530;52.382;5.270;2023-07-02T08:30:43;14.68;;;5.18;;
55655;SDS011;41530;52.382;5.270;2023-07-02T08:33:10;13.90;;;5.13;;
55655;SDS011;41530;52.382;5.270;2023-07-02T08:35:36;12.52;;;4.70;;
55655;SDS011;41530;52.382;5.270;2023-07-02T08:38:03;11.13;;;4.70;;
55655;SDS011;41530;52.382;5.270;2023-07-02T08:40:30;10.60;;;5.05;;
55655;SDS011;41530;52.382;5.270;2023-07-02T08:42:56;16.65;;;5.60;;
55655;SDS011;41530;52.382;5.270;2023-07-02T08:45:27;11.75;;;5.30;;
55655;SDS011;41530;52.382;5.270;2023-07-02T08:47:54;13.73;;;4.70;;
55655;SDS011;41530;52.382;5.270;2023-07-02T08:50:23;13.18;;;5.15;;
55655;SDS011;41530;52.382;5.270;2023-07-02T08:52:50;12.73;;;5.25;;
55655;SDS011;41530;52.382;5.270;2023-07-02T08:55:16;13.73;;;5.18;;
55655;SDS011;41530;52.382;5.270;2023-07-02T08:57:53;11.23;;;4.50;;
55655;SDS011;41530;52.382;5.270;2023-07-02T09:00:20;12.85;;;4.20;;
55655;SDS011;41530;52.382;5.270;2023-07-02T09:02:48;8.80;;;3.58;;
55655;SDS011;41530;52.382;5.270;2023-07-02T09:05:14;7.40;;;4.13;;
55655;SDS011;41530;52.382;5.270;2023-07-02T09:07:48;8.95;;;4.25;;
55655;SDS011;41530;52.382;5.270;2023-07-02T09:10:29;8.95;;;4.10;;
55655;SDS011;41530;52.382;5.270;2023-07-02T09:13:06;10.50;;;4.25;;
55655;SDS011;41530;52.382;5.270;2023-07-02T09:15:40;11.18;;;4.50;;
55655;SDS011;41530;52.382;5.270;2023-07-02T09:18:14;10.27;;;4.68;;
55655;SDS011;41530;52.382;5.270;2023-07-02T09:20:45;8.05;;;3.65;;
55655;SDS011;41530;52.382;5.270;2023-07-02T09:23:12;7.55;;;4.40;;
55655;SDS011;41530;52.382;5.270;2023-07-02T09:25:39;9.07;;;4.10;;
55655;SDS011;41530;52.382;5.270;2023-07-02T09:28:40;10.20;;;3.88;;
55655;SDS011;41530;52.382;5.270;2023-07-02T09:30:59;7.43;;;4.20;;
55655;SDS011;41530;52.382;5.270;2023-07-02T09:33:29;10.20;;;3.88;;
55655;SDS011;41530;52.382;5.270;2023-07-02T09:35:56;10.13;;;3.85;;
55655;SDS011;41530;52.382;5.270;2023-07-02T09:38:23;7.32;;;3.67;;
55655;SDS011;41530;52.382;5.270;2023-07-02T09:40:50;8.77;;;3.72;;
55655;SDS011;41530;52.382;5.270;2023-07-02T09:43:19;7.20;;;3.83;;
55655;SDS011;41530;52.382;5.270;2023-07-02T09:45:47;12.13;;;3.88;;
55655;SDS011;41530;52.382;5.270;2023-07-02T09:48:17;6.18;;;3.75;;
55655;SDS011;41530;52.382;5.270;2023-07-02T09:50:47;8.55;;;3.67;;
55655;SDS011;41530;52.382;5.270;2023-07-02T09:53:16;9.55;;;3.90;;
55655;SDS011;41530;52.382;5.270;2023-07-02T09:55:43;9.07;;;3.40;;
55655;SDS011;41530;52.382;5.270;2023-07-02T09:58:10;7.13;;;3.78;;
55655;SDS011;41530;52.382;5.270;2023-07-02T10:00:38;6.78;;;3.42;;
55655;SDS011;41530;52.382;5.270;2023-07-02T10:03:05;6.78;;;3.20;;
55655;SDS011;41530;52.382;5.270;2023-07-02T10:05:32;7.90;;;3.88;;
55655;SDS011;41530;52.382;5.270;2023-07-02T10:08:13;8.40;;;3.67;;
55655;SDS011;41530;52.382;5.270;2023-07-02T10:10:40;7.90;;;3.78;;
55655;SDS011;41530;52.382;5.270;2023-07-02T10:13:07;7.40;;;3.60;;
55655;SDS011;41530;52.382;5.270;2023-07-02T10:15:34;6.80;;;3.15;;
55655;SDS011;41530;52.382;5.270;2023-07-02T10:18:05;8.48;;;3.40;;
55655;SDS011;41530;52.382;5.270;2023-07-02T10:20:33;6.88;;;3.50;;
55655;SDS011;41530;52.382;5.270;2023-07-02T10:23:03;5.95;;;3.05;;
55655;SDS011;41530;52.382;5.270;2023-07-02T10:25:32;7.40;;;3.22;;
55655;SDS011;41530;52.382;5.270;2023-07-02T10:28:17;6.53;;;3.65;;
55655;SDS011;41530;52.382;5.270;2023-07-02T10:30:45;5.40;;;2.80;;
55655;SDS011;41530;52.382;5.270;2023-07-02T10:33:13;5.40;;;3.10;;
55655;SDS011;41530;52.382;5.270;2023-07-02T10:35:42;7.45;;;3.45;;
55655;SDS011;41530;52.382;5.270;2023-07-02T10:40:59;6.35;;;3.40;;
55655;SDS011;41530;52.382;5.270;2023-07-02T10:43:30;5.97;;;3.25;;
55655;SDS011;41530;52.382;5.270;2023-07-02T10:45:58;7.10;;;2.83;;
55655;SDS011;41530;52.382;5.270;2023-07-02T10:48:27;5.75;;;3.00;;
55655;SDS011;41530;52.382;5.270;2023-07-02T10:50:54;5.55;;;2.97;;
55655;SDS011;41530;52.382;5.270;2023-07-02T10:53:21;7.50;;;3.35;;
55655;SDS011;41530;52.382;5.270;2023-07-02T10:55:54;4.70;;;2.92;;
55655;SDS011;41530;52.382;5.270;2023-07-02T10:58:23;6.15;;;2.55;;
55655;SDS011;41530;52.382;5.270;2023-07-02T11:00:51;7.05;;;3.80;;
55655;SDS011;41530;52.382;5.270;2023-07-02T11:03:22;5.88;;;3.13;;
55655;SDS011;41530;52.382;5.270;2023-07-02T11:05:51;5.40;;;2.97;;
55655;SDS011;41530;52.382;5.270;2023-07-02T11:08:19;4.70;;;2.80;;
55655;SDS011;41530;52.382;5.270;2023-07-02T11:10:47;5.65;;;3.08;;
55655;SDS011;41530;52.382;5.270;2023-07-02T11:13:18;6.82;;;2.60;;
55655;SDS011;41530;52.382;5.270;2023-07-02T11:15:46;4.60;;;2.45;;
55655;SDS011;41530;52.382;5.270;2023-07-02T11:18:14;5.53;;;2.75;;
55655;SDS011;41530;52.382;5.270;2023-07-02T11:20:47;6.18;;;2.90;;
55655;SDS011;41530;52.382;5.270;2023-07-02T11:23:17;8.07;;;3.17;;
55655;SDS011;41530;52.382;5.270;2023-07-02T11:25:54;6.53;;;3.38;;
55655;SDS011;41530;52.382;5.270;2023-07-02T11:28:23;4.88;;;2.50;;
55655;SDS011;41530;52.382;5.270;2023-07-02T11:30:50;5.70;;;2.45;;
55655;SDS011;41530;52.382;5.270;2023-07-02T11:33:17;6.03;;;2.95;;
55655;SDS011;41530;52.382;5.270;2023-07-02T11:35:44;5.22;;;2.63;;
55655;SDS011;41530;52.382;5.270;2023-07-02T11:38:11;5.45;;;2.38;;
55655;SDS011;41530;52.382;5.270;2023-07-02T11:40:38;4.07;;;2.50;;
55655;SDS011;41530;52.382;5.270;2023-07-02T11:43:05;5.90;;;2.78;;
55655;SDS011;41530;52.382;5.270;2023-07-02T11:45:32;5.53;;;2.72;;
55655;SDS011;41530;52.382;5.270;2023-07-02T11:47:59;4.03;;;2.58;;
55655;SDS011;41530;52.382;5.270;2023-07-02T11:50:26;5.97;;;3.40;;
55655;SDS011;41530;52.382;5.270;2023-07-02T11:52:56;4.93;;;2.65;;
55655;SDS011;41530;52.382;5.270;2023-07-02T11:55:23;4.72;;;2.50;;
55655;SDS011;41530;52.382;5.270;2023-07-02T11:57:49;3.92;;;2.42;;
55655;SDS011;41530;52.382;5.270;2023-07-02T12:00:16;5.35;;;2.88;;
55655;SDS011;41530;52.382;5.270;2023-07-02T12:02:43;4.78;;;2.47;;
55655;SDS011;41530;52.382;5.270;2023-07-02T12:05:10;6.80;;;2.67;;
55655;SDS011;41530;52.382;5.270;2023-07-02T12:07:38;4.65;;;2.72;;
55655;SDS011;41530;52.382;5.270;2023-07-02T12:10:06;4.55;;;2.72;;
55655;SDS011;41530;52.382;5.270;2023-07-02T12:12:34;5.63;;;2.47;;
55655;SDS011;41530;52.382;5.270;2023-07-02T12:15:00;5.45;;;2.63;;
55655;SDS011;41530;52.382;5.270;2023-07-02T12:17:27;4.05;;;2.55;;
55655;SDS011;41530;52.382;5.270;2023-07-02T12:19:54;4.95;;;2.50;;
55655;SDS011;41530;52.382;5.270;2023-07-02T12:22:20;3.25;;;2.92;;
55655;SDS011;41530;52.382;5.270;2023-07-02T12:24:48;4.25;;;2.35;;
55655;SDS011;41530;52.382;5.270;2023-07-02T12:27:22;3.90;;;2.55;;
55655;SDS011;41530;52.382;5.270;2023-07-02T12:29:48;4.78;;;2.47;;
55655;SDS011;41530;52.382;5.270;2023-07-02T12:32:15;4.53;;;2.40;;
55655;SDS011;41530;52.382;5.270;2023-07-02T12:34:42;3.60;;;2.33;;
55655;SDS011;41530;52.382;5.270;2023-07-02T12:37:08;3.80;;;2.70;;
55655;SDS011;41530;52.382;5.270;2023-07-02T12:39:35;5.95;;;2.33;;
55655;SDS011;41530;52.382;5.270;2023-07-02T12:42:02;3.97;;;2.17;;
55655;SDS011;41530;52.382;5.270;2023-07-02T12:44:29;3.67;;;2.63;;
55655;SDS011;41530;52.382;5.270;2023-07-02T12:46:55;3.40;;;2.42;;
55655;SDS011;41530;52.382;5.270;2023-07-02T12:49:22;3.05;;;2.20;;
55655;SDS011;41530;52.382;5.270;2023-07-02T12:51:49;4.32;;;2.25;;
55655;SDS011;41530;52.382;5.270;2023-07-02T12:54:15;2.97;;;2.40;;
55655;SDS011;41530;52.382;5.270;2023-07-02T12:56:42;4.05;;;2.38;;
55655;SDS011;41530;52.382;5.270;2023-07-02T12:59:09;4.15;;;3.00;;
55655;SDS011;41530;52.382;5.270;2023-07-02T13:01:35;3.65;;;2.20;;
55655;SDS011;41530;52.382;5.270;2023-07-02T13:04:02;3.92;;;2.60;;
55655;SDS011;41530;52.382;5.270;2023-07-02T13:06:30;3.83;;;2.47;;
55655;SDS011;41530;52.382;5.270;2023-07-02T13:09:00;4.90;;;2.28;;
55655;SDS011;41530;52.382;5.270;2023-07-02T13:11:27;5.25;;;2.50;;
55655;SDS011;41530;52.382;5.270;2023-07-02T13:13:54;3.17;;;2.17;;
55655;SDS011;41530;52.382;5.270;2023-07-02T13:16:21;3.55;;;2.13;;
55655;SDS011;41530;52.382;5.270;2023-07-02T13:18:48;2.70;;;2.10;;
55655;SDS011;41530;52.382;5.270;2023-07-02T13:21:14;4.03;;;2.42;;
55655;SDS011;41530;52.382;5.270;2023-07-02T13:23:45;3.67;;;2.30;;
55655;SDS011;41530;52.382;5.270;2023-07-02T13:26:11;4.50;;;2.38;;
55655;SDS011;41530;52.382;5.270;2023-07-02T13:28:38;4.93;;;2.28;;
55655;SDS011;41530;52.382;5.270;2023-07-02T13:31:04;5.13;;;2.30;;
55655;SDS011;41530;52.382;5.270;2023-07-02T13:33:31;3.13;;;2.28;;
55655;SDS011;41530;52.382;5.270;2023-07-02T13:35:58;3.97;;;2.22;;
55655;SDS011;41530;52.382;5.270;2023-07-02T13:38:25;4.05;;;2.15;;
55655;SDS011;41530;52.382;5.270;2023-07-02T13:40:51;3.22;;;2.17;;
55655;SDS011;41530;52.382;5.270;2023-07-02T13:43:18;2.95;;;2.05;;
55655;SDS011;41530;52.382;5.270;2023-07-02T13:45:45;2.45;;;2.10;;
55655;SDS011;41530;52.382;5.270;2023-07-02T13:48:12;5.70;;;2.20;;
55655;SDS011;41530;52.382;5.270;2023-07-02T13:50:38;3.75;;;2.45;;
55655;SDS011;41530;52.382;5.270;2023-07-02T13:53:05;3.58;;;2.42;;
55655;SDS011;41530;52.382;5.270;2023-07-02T13:55:31;3.92;;;2.08;;
55655;SDS011;41530;52.382;5.270;2023-07-02T13:57:58;3.83;;;2.22;;
55655;SDS011;41530;52.382;5.270;2023-07-02T14:00:26;3.65;;;2.60;;
55655;SDS011;41530;52.382;5.270;2023-07-02T14:02:54;3.13;;;2.10;;
55655;SDS011;41530;52.382;5.270;2023-07-02T14:05:21;4.03;;;2.15;;
55655;SDS011;41530;52.382;5.270;2023-07-02T14:07:48;6.53;;;2.22;;
55655;SDS011;41530;52.382;5.270;2023-07-02T14:10:15;3.60;;;2.20;;
55655;SDS011;41530;52.382;5.270;2023-07-02T14:12:41;3.78;;;2.13;;
55655;SDS011;41530;52.382;5.270;2023-07-02T14:15:09;3.90;;;2.38;;
55655;SDS011;41530;52.382;5.270;2023-07-02T14:17:36;3.47;;;2.05;;
55655;SDS011;41530;52.382;5.270;2023-07-02T14:20:03;4.32;;;2.40;;
55655;SDS011;41530;52.382;5.270;2023-07-02T14:22:32;3.42;;;2.30;;
55655;SDS011;41530;52.382;5.270;2023-07-02T14:24:58;4.28;;;2.30;;
55655;SDS011;41530;52.382;5.270;2023-07-02T14:27:25;3.22;;;2.20;;
55655;SDS011;41530;52.382;5.270;2023-07-02T14:29:52;5.70;;;2.55;;
55655;SDS011;41530;52.382;5.270;2023-07-02T14:32:18;3.28;;;2.35;;
55655;SDS011;41530;52.382;5.270;2023-07-02T14:34:45;4.50;;;2.40;;
55655;SDS011;41530;52.382;5.270;2023-07-02T14:37:12;3.92;;;2.17;;
55655;SDS011;41530;52.382;5.270;2023-07-02T14:39:39;3.67;;;2.45;;
55655;SDS011;41530;52.382;5.270;2023-07-02T14:42:10;2.75;;;2.20;;
55655;SDS011;41530;52.382;5.270;2023-07-02T14:44:37;2.47;;;1.90;;
55655;SDS011;41530;52.382;5.270;2023-07-02T14:47:04;5.22;;;2.60;;
55655;SDS011;41530;52.382;5.270;2023-07-02T14:49:31;3.65;;;2.58;;
55655;SDS011;41530;52.382;5.270;2023-07-02T14:51:58;4.85;;;2.55;;
55655;SDS011;41530;52.382;5.270;2023-07-02T14:54:24;4.00;;;2.55;;
55655;SDS011;41530;52.382;5.270;2023-07-02T14:56:51;2.13;;;1.92;;
55655;SDS011;41530;52.382;5.270;2023-07-02T14:59:17;2.88;;;2.20;;
55655;SDS011;41530;52.382;5.270;2023-07-02T15:01:44;2.72;;;2.10;;